Delta Virtual Airport Information Service

Sao Paulo Guarulhos International Airport

ICAO: SBGR Country: Brazil
Latitude: -23.432 Longitude: -46.4695
Latest Arrival : DAL105 (1) (KATL-SBGR) Latest Departure : DAC3285 (SBGR-SBKP)


WX CaptureLIVE
Data provided by noaa.gov | Fetched at 11:15:24

METAR : SBGR 151600Z 06004KT CAVOK 21/13 Q1019

TAF : SBGR 150925Z 1512/1618 06008KT 8000 BKN011 TX22/1518Z TN13/1608Z BECMG 1513/1515 06005KT SCT015 BECMG 1515/1517 FEW025 BECMG 1517/1519 30004KT BECMG 1521/1523 15004KT BECMG 1600/1603 12004KT BKN010 PROB30 1609/1611 OVC007 BECMG 1613/1615 BKN015 BECMG 1615/1617 15006KT BKN020 RMK PGM


Runway Data for SBGR
Data provided by openaviationdata.com

Runway ID Mag Var Hdg Length Elevation Surface ILS Freq ILS Id ILS Slope
09L -20 93° 12151 ft 2458 ft Asphalt 110.7 IUC 2
09R -20 93° 9819 ft 2458 ft Asphalt 111.5 IGR 2
27L -20 273° 9819 ft 2458 ft Asphalt 111.1 IBC 3
27R -20 273° 12151 ft 2458 ft Asphalt 109.7 IGS 3

Sao Paulo Guarulhos International Airport, Brazil
Use only for reference purposes



Not for navigational purposes.